Time;durP1;ratioP1;P1;durP2;ratioP2;P2;SDS_P1;SDS_P2;PMS_P1;PMS_P2;Temp;Humidity;BMP_temperature;BMP_pressure;BME280_temperature;BME280_humidity;BME280_pressure;Samples;Min_cycle;Max_cycle;Signal;HPM_P1;HPM_P2
2021/12/08 00:00:21;;;;;;;2.53;1.27;;;2.80;99.90;;;;;;5035956;28;20103;-85
2021/12/08 00:02:47;;;;;;;4.50;1.00;;;2.80;99.90;;;;;;5019001;28;20124;-86
2021/12/08 00:05:15;;;;;;;4.45;1.10;;;2.80;99.90;;;;;;5055470;28;20035;-86
2021/12/08 00:07:41;;;;;;;1.63;0.80;;;2.80;99.90;;;;;;5038149;28;20028;-86
2021/12/08 00:15:25;;;;;;;2.30;1.33;;;2.80;99.90;;;;;;5037038;28;19991;-86
2021/12/08 00:17:51;;;;;;;3.65;1.10;;;2.80;99.90;;;;;;5018684;28;20086;-86
2021/12/08 00:20:17;;;;;;;1.77;1.00;;;2.80;99.90;;;;;;5022535;28;20028;-86
2021/12/08 00:22:43;;;;;;;1.88;0.82;;;2.80;99.90;;;;;;5053941;28;20031;-86
2021/12/08 00:25:09;;;;;;;6.35;1.27;;;2.80;99.90;;;;;;5038420;28;20652;-86
2021/12/08 00:27:34;;;;;;;2.85;0.90;;;2.80;99.90;;;;;;5033805;28;20029;-87
2021/12/08 00:30:00;;;;;;;1.48;0.93;;;2.80;99.90;;;;;;5034420;28;20040;-87
2021/12/08 00:32:29;;;;;;;5.57;1.10;;;2.80;99.90;;;;;;5001417;28;20170;-86
2021/12/08 00:34:54;;;;;;;3.00;0.90;;;2.80;99.90;;;;;;5017857;28;20489;-86
2021/12/08 00:37:20;;;;;;;3.60;0.70;;;2.80;99.90;;;;;;5033687;28;20163;-86
2021/12/08 00:39:46;;;;;;;4.53;1.30;;;2.80;99.90;;;;;;5034126;28;20059;-86
2021/12/08 00:42:12;;;;;;;4.03;0.82;;;2.80;99.90;;;;;;5033968;28;20113;-85
2021/12/08 00:44:38;;;;;;;2.28;0.90;;;2.80;99.90;;;;;;5033938;28;20520;-86
2021/12/08 00:47:05;;;;;;;1.90;0.93;;;2.80;99.90;;;;;;5000512;28;20033;-86
2021/12/08 00:49:31;;;;;;;2.75;0.90;;;2.90;99.90;;;;;;5017503;28;20048;-87
2021/12/08 00:51:57;;;;;;;3.42;1.10;;;2.90;99.90;;;;;;5031156;28;20029;-86
2021/12/08 00:54:22;;;;;;;1.75;1.00;;;2.90;99.90;;;;;;5051376;28;20025;-86
2021/12/08 00:56:48;;;;;;;2.83;1.10;;;2.90;99.90;;;;;;5016279;28;20037;-87
2021/12/08 00:59:14;;;;;;;1.25;0.70;;;2.90;99.90;;;;;;5033612;28;20017;-86
2021/12/08 01:01:39;;;;;;;2.90;1.05;;;2.90;99.90;;;;;;5017464;28;20115;-87
2021/12/08 01:04:07;;;;;;;2.80;0.80;;;2.90;99.90;;;;;;5017385;28;20037;-86
2021/12/08 01:06:33;;;;;;;0.80;0.57;;;2.90;99.90;;;;;;5016174;28;20083;-86
2021/12/08 01:08:59;;;;;;;2.97;0.85;;;2.90;99.90;;;;;;5033870;28;20037;-87
2021/12/08 01:11:25;;;;;;;2.05;1.00;;;2.90;99.90;;;;;;5017098;28;20033;-87
2021/12/08 01:13:52;;;;;;;1.13;0.80;;;3.00;99.90;;;;;;5047763;28;20539;-86
2021/12/08 01:16:18;;;;;;;2.33;0.85;;;3.00;99.90;;;;;;5015594;28;20408;-86
2021/12/08 01:18:44;;;;;;;5.90;0.95;;;3.00;99.90;;;;;;5022544;28;20025;-86
2021/12/08 01:21:11;;;;;;;2.33;1.15;;;3.00;99.90;;;;;;5033637;28;20052;-86
2021/12/08 01:23:38;;;;;;;1.48;0.90;;;3.00;99.90;;;;;;5016835;28;20064;-86
2021/12/08 01:26:05;;;;;;;1.80;0.88;;;3.00;99.90;;;;;;5049061;28;20512;-86
2021/12/08 01:28:31;;;;;;;2.60;1.10;;;3.00;99.90;;;;;;5012686;28;20048;-87
2021/12/08 01:30:59;;;;;;;3.53;1.20;;;3.10;99.90;;;;;;5036510;28;20425;-86
2021/12/08 01:33:25;;;;;;;4.53;1.23;;;3.10;99.90;;;;;;5037008;28;20033;-86
2021/12/08 01:35:52;;;;;;;2.70;1.25;;;3.10;99.90;;;;;;5070820;28;20024;-86
2021/12/08 01:38:17;;;;;;;1.88;1.00;;;3.10;99.90;;;;;;5036565;28;20412;-87
2021/12/08 01:40:43;;;;;;;2.15;1.00;;;3.10;99.90;;;;;;5053128;28;20029;-86
2021/12/08 01:43:23;;;;;;;1.88;1.10;;;3.10;99.90;;;;;;5052338;28;20028;-85
2021/12/08 01:45:59;;;;;;;2.83;1.08;;;3.20;99.90;;;;;;5050508;28;20029;-87
2021/12/08 01:48:30;;;;;;;6.13;1.63;;;3.20;99.90;;;;;;5037680;28;20024;-86
2021/12/08 01:51:02;;;;;;;1.55;1.13;;;3.20;99.90;;;;;;5106472;22;20121;-85
2021/12/08 01:53:28;;;;;;;1.45;1.00;;;3.20;99.90;;;;;;5068776;28;20512;-85
2021/12/08 01:55:54;;;;;;;2.20;1.38;;;3.20;99.90;;;;;;5070161;28;20047;-85
2021/12/08 01:58:20;;;;;;;2.92;1.15;;;3.20;99.90;;;;;;5052351;28;20036;-86
2021/12/08 02:00:51;;;;;;;2.63;1.50;;;3.20;99.90;;;;;;5054848;28;20036;-85
2021/12/08 02:03:17;;;;;;;;;;;3.20;99.90;;;;;;5032938;28;20496;-84
2021/12/08 02:05:43;;;;;;;2.15;1.10;;;3.30;99.90;;;;;;5037783;28;20363;-86
2021/12/08 02:08:09;;;;;;;2.60;1.70;;;3.30;99.90;;;;;;5048484;28;20025;-86
2021/12/08 02:10:37;;;;;;;7.32;1.30;;;3.30;99.90;;;;;;5048894;28;20116;-85
2021/12/08 02:13:04;;;;;;;3.85;1.65;;;3.30;99.90;;;;;;5067338;28;20028;-85
2021/12/08 02:15:30;;;;;;;2.33;1.27;;;3.40;99.90;;;;;;5061263;28;20021;-85
2021/12/08 02:17:56;;;;;;;2.42;1.52;;;3.40;99.90;;;;;;5048084;28;20040;-85
2021/12/08 02:20:24;;;;;;;5.75;1.70;;;3.40;99.90;;;;;;5054982;28;20074;-85
2021/12/08 02:22:50;;;;;;;2.67;1.27;;;3.40;99.90;;;;;;5055386;28;20056;-87
2021/12/08 02:25:20;;;;;;;4.25;1.40;;;3.40;99.90;;;;;;5035326;28;20624;-84
2021/12/08 02:27:47;;;;;;;2.90;1.58;;;3.50;99.90;;;;;;5032087;28;20052;-85
2021/12/08 02:49:02;;;;;;;3.78;1.65;;;3.60;99.90;;;;;;5066061;28;20037;-84
2021/12/08 02:51:28;;;;;;;3.47;1.77;;;3.60;99.90;;;;;;5048489;28;20040;-85
2021/12/08 02:53:54;;;;;;;3.40;2.00;;;3.70;99.90;;;;;;5032123;28;20066;-85
2021/12/08 02:56:19;;;;;;;4.22;1.98;;;3.70;99.90;;;;;;5014997;28;20029;-83
2021/12/08 02:58:47;;;;;;;3.72;1.77;;;3.70;99.90;;;;;;5048275;28;20128;-85
2021/12/08 03:01:13;;;;;;;3.33;1.83;;;3.70;99.90;;;;;;5049669;28;20022;-85
2021/12/08 03:03:39;;;;;;;3.25;1.80;;;3.70;99.90;;;;;;5033123;28;20029;-85
2021/12/08 03:06:06;;;;;;;7.43;2.20;;;3.70;99.90;;;;;;5043124;28;20429;-86
2021/12/08 03:08:32;;;;;;;10.20;1.90;;;3.70;99.90;;;;;;5051173;28;20033;-85
2021/12/08 03:10:59;;;;;;;3.40;2.10;;;3.80;99.90;;;;;;5032077;28;20047;-85
2021/12/08 03:13:44;;;;;;;3.00;2.00;;;3.70;99.90;;;;;;5048117;28;20056;-85
2021/12/08 03:16:12;;;;;;;6.07;1.90;;;3.80;99.90;;;;;;5047544;28;20120;-85
2021/12/08 03:18:40;;;;;;;3.05;1.88;;;3.80;99.90;;;;;;5031834;28;20056;-85
2021/12/08 03:21:08;;;;;;;4.35;1.98;;;3.80;99.90;;;;;;5031831;28;20507;-85
2021/12/08 03:23:52;;;;;;;2.72;1.77;;;3.80;99.90;;;;;;5047843;28;20397;-85
2021/12/08 03:26:25;;;;;;;6.28;2.03;;;3.80;99.90;;;;;;5033444;28;20044;-85
2021/12/08 03:28:59;;;;;;;4.85;1.95;;;3.90;99.90;;;;;;5061013;28;20110;-86
2021/12/08 03:31:32;;;;;;;5.75;1.75;;;3.90;99.90;;;;;;5040231;28;20374;-85
2021/12/08 03:33:58;;;;;;;6.65;1.75;;;3.90;99.90;;;;;;5036305;28;20116;-85
2021/12/08 03:36:24;;;;;;;2.75;1.80;;;3.90;99.90;;;;;;5062600;28;20158;-86
2021/12/08 03:38:49;;;;;;;3.42;1.80;;;3.90;99.90;;;;;;5055111;28;20400;-86
2021/12/08 03:41:15;;;;;;;5.55;1.83;;;3.90;99.90;;;;;;5059234;28;20032;-85
2021/12/08 03:43:41;;;;;;;3.97;2.00;;;3.90;99.90;;;;;;5035364;28;20410;-85
2021/12/08 03:46:11;;;;;;;4.65;1.92;;;3.90;99.90;;;;;;5057187;28;20032;-86
2021/12/08 03:48:46;;;;;;;3.45;2.17;;;4.00;99.90;;;;;;5071764;28;20463;-86
2021/12/08 03:51:12;;;;;;;7.85;2.45;;;3.90;99.90;;;;;;5043160;28;20065;-85
2021/12/08 03:53:38;;;;;;;4.65;2.17;;;3.90;99.90;;;;;;4998856;28;20508;-85
2021/12/08 03:56:05;;;;;;;6.30;2.80;;;3.90;99.90;;;;;;5050250;28;20055;-86
2021/12/08 03:58:31;;;;;;;3.42;2.30;;;3.90;99.90;;;;;;5042697;28;20040;-86
2021/12/08 04:00:58;;;;;;;5.13;2.55;;;4.00;99.90;;;;;;5034737;28;20124;-86
2021/12/08 04:03:26;;;;;;;5.63;2.22;;;4.00;99.90;;;;;;5061612;28;20074;-85
2021/12/08 04:05:56;;;;;;;5.22;2.42;;;4.00;99.90;;;;;;5048394;28;20029;-86
2021/12/08 04:08:31;;;;;;;8.02;2.85;;;4.00;99.90;;;;;;5033586;28;20033;-85
2021/12/08 04:10:59;;;;;;;7.20;2.70;;;4.00;99.90;;;;;;5034690;28;20068;-85
2021/12/08 04:13:30;;;;;;;5.60;2.60;;;4.00;99.90;;;;;;5036675;28;20492;-85
2021/12/08 04:15:55;;;;;;;;;;;4.10;99.90;;;;;;5051410;28;20137;-85
2021/12/08 04:18:22;;;;;;;4.75;2.20;;;4.00;99.90;;;;;;5058244;28;20007;-86
2021/12/08 04:20:52;;;;;;;3.33;1.98;;;4.10;99.90;;;;;;5056125;28;20059;-85
2021/12/08 04:23:20;;;;;;;5.13;2.38;;;4.00;99.90;;;;;;5052861;28;20095;-86
2021/12/08 04:25:51;;;;;;;5.20;2.33;;;4.00;99.90;;;;;;5051027;28;20024;-86
2021/12/08 04:28:23;;;;;;;6.55;2.55;;;4.00;99.90;;;;;;5033685;28;20120;-85
2021/12/08 04:30:54;;;;;;;5.35;2.45;;;4.00;99.90;;;;;;5049901;28;20047;-86
2021/12/08 04:33:19;;;;;;;4.00;2.50;;;4.00;99.90;;;;;;5033441;28;20450;-85
2021/12/08 04:35:48;;;;;;;13.35;2.78;;;3.90;99.90;;;;;;5033789;28;20020;-85
2021/12/08 04:38:23;;;;;;;6.57;2.70;;;3.90;99.90;;;;;;5047716;28;20032;-85
2021/12/08 04:41:07;;;;;;;12.90;2.70;;;4.00;99.90;;;;;;5041095;28;20106;-85
2021/12/08 04:43:46;;;;;;;4.88;2.40;;;4.00;99.90;;;;;;5051103;28;20405;-86
2021/12/08 05:05:06;;;;;;;6.35;2.63;;;3.90;99.90;;;;;;5067424;28;20033;-86
2021/12/08 05:07:47;;;;;;;5.63;2.22;;;3.90;99.90;;;;;;5051077;28;20520;-86
2021/12/08 05:10:16;;;;;;;;;;;3.90;99.90;;;;;;5070530;28;20033;-85
2021/12/08 05:12:44;;;;;;;6.38;2.15;;;3.90;99.90;;;;;;5033303;28;20003;-86
2021/12/08 05:15:16;;;;;;;4.53;2.40;;;3.90;99.90;;;;;;5032467;28;20025;-85
2021/12/08 05:17:46;;;;;;;4.15;2.50;;;3.90;99.90;;;;;;5063258;28;20244;-86
2021/12/08 05:20:52;;;;;;;5.70;2.20;;;4.00;99.90;;;;;;5048998;28;20025;-86
2021/12/08 05:23:30;;;;;;;4.10;2.50;;;4.00;99.90;;;;;;5027996;28;20502;-85
2021/12/08 05:26:00;;;;;;;4.32;2.15;;;4.00;99.90;;;;;;5029893;28;20167;-85
2021/12/08 05:28:29;;;;;;;6.95;2.70;;;4.00;99.90;;;;;;5053618;28;20032;-86
2021/12/08 05:31:04;;;;;;;7.63;2.50;;;4.00;99.90;;;;;;5068984;28;20063;-86
2021/12/08 05:33:30;;;;;;;7.35;2.45;;;4.10;99.90;;;;;;5051723;28;20028;-86
2021/12/08 05:35:56;;;;;;;4.57;2.03;;;4.10;99.90;;;;;;5061930;28;20170;-86
2021/12/08 05:38:22;;;;;;;7.25;2.60;;;4.10;99.90;;;;;;5061144;28;20062;-86
2021/12/08 05:40:52;;;;;;;4.50;2.50;;;4.10;99.90;;;;;;5055227;28;20029;-86
2021/12/08 05:43:19;;;;;;;3.50;2.20;;;4.10;99.90;;;;;;5048853;28;20074;-86
2021/12/08 05:45:46;;;;;;;7.32;2.40;;;4.10;99.90;;;;;;5051630;28;20102;-86
2021/12/08 05:48:12;;;;;;;4.38;2.40;;;4.10;99.90;;;;;;5057776;28;20043;-85
2021/12/08 05:50:57;;;;;;;6.63;2.70;;;4.10;99.90;;;;;;5049403;28;20036;-85
2021/12/08 05:53:23;;;;;;;5.45;2.28;;;4.10;99.90;;;;;;5050491;28;20041;-86
2021/12/08 05:55:50;;;;;;;5.22;2.17;;;4.10;99.90;;;;;;5054949;28;20036;-85
2021/12/08 05:58:19;;;;;;;4.28;2.03;;;4.10;99.90;;;;;;5056315;28;20182;-86
2021/12/08 06:00:49;;;;;;;6.68;2.40;;;4.10;99.90;;;;;;5033618;28;20033;-87
2021/12/08 06:03:17;;;;;;;13.40;2.63;;;4.10;99.90;;;;;;5049516;28;20021;-87
2021/12/08 06:05:44;;;;;;;5.25;2.35;;;4.10;99.90;;;;;;5049176;28;20040;-87
2021/12/08 06:08:10;;;;;;;3.40;1.88;;;4.10;99.90;;;;;;5032892;28;20322;-87
2021/12/08 06:10:37;;;;;;;6.60;1.85;;;4.00;99.90;;;;;;5049163;28;20040;-88
2021/12/08 06:13:07;;;;;;;6.07;2.00;;;4.00;99.90;;;;;;5016265;28;20115;-87
2021/12/08 06:15:33;;;;;;;2.95;1.60;;;4.00;99.90;;;;;;5032756;28;20035;-87
2021/12/08 06:17:59;;;;;;;4.60;1.90;;;4.00;99.90;;;;;;5049060;28;20025;-88
2021/12/08 06:20:25;;;;;;;8.02;2.25;;;3.90;99.90;;;;;;5032932;28;20082;-88
2021/12/08 06:22:53;;;;;;;7.10;2.42;;;3.90;99.90;;;;;;5049322;28;20032;-87
2021/12/08 06:25:20;;;;;;;7.63;3.20;;;3.90;99.90;;;;;;5032441;28;20040;-87
2021/12/08 06:27:47;;;;;;;4.75;2.60;;;3.90;99.90;;;;;;5032480;28;20316;-87
2021/12/08 06:30:16;;;;;;;10.98;2.40;;;3.80;99.90;;;;;;5048993;28;20033;-87
2021/12/08 06:32:42;;;;;;;5.25;2.35;;;3.80;99.90;;;;;;5049112;28;20393;-87
2021/12/08 06:35:13;;;;;;;6.95;2.67;;;3.80;99.90;;;;;;5048943;28;20074;-87
2021/12/08 06:37:40;;;;;;;9.15;3.50;;;3.80;99.90;;;;;;5049030;28;20490;-87
2021/12/08 06:40:18;;;;;;;8.27;2.42;;;3.70;99.90;;;;;;5032587;28;20032;-87
2021/12/08 06:42:48;;;;;;;7.30;2.47;;;3.70;99.90;;;;;;5049378;28;20112;-87
2021/12/08 06:45:16;;;;;;;;;;;3.70;99.90;;;;;;5033233;28;20511;-87
2021/12/08 06:47:43;;;;;;;5.40;1.98;;;3.70;99.90;;;;;;5032243;28;20273;-87
2021/12/08 06:50:15;;;;;;;7.15;2.65;;;3.70;99.90;;;;;;5048661;28;20040;-87
2021/12/08 06:52:41;;;;;;;4.97;2.40;;;3.70;99.90;;;;;;5032586;28;20048;-87
2021/12/08 06:55:30;;;;;;;10.18;3.05;;;3.70;99.90;;;;;;5032026;28;20053;-87
2021/12/08 06:58:08;;;;;;;6.80;2.80;;;3.70;99.90;;;;;;5032180;28;20056;-87
2021/12/08 07:00:55;;;;;;;5.75;2.35;;;3.80;99.90;;;;;;5048640;28;20448;-87
2021/12/08 07:03:46;;;;;;;8.43;2.20;;;3.80;99.90;;;;;;5049670;28;20029;-87
2021/12/08 07:09:06;;;;;;;8.20;2.75;;;3.90;99.90;;;;;;5053841;28;20040;-87
2021/12/08 07:11:32;;;;;;;7.40;2.47;;;3.80;99.90;;;;;;5019591;28;20071;-88
2021/12/08 07:13:58;;;;;;;7.55;2.38;;;3.90;99.90;;;;;;5035707;28;20038;-87
2021/12/08 07:16:28;;;;;;;10.45;4.00;;;3.90;99.90;;;;;;5053543;28;20482;-87
2021/12/08 07:19:03;;;;;;;6.97;2.53;;;4.00;99.90;;;;;;5019851;28;20103;-87
2021/12/08 07:21:36;;;;;;;8.07;2.42;;;4.00;99.90;;;;;;5036334;28;20158;-87
2021/12/08 07:24:10;;;;;;;10.10;2.75;;;4.00;99.90;;;;;;5052271;28;20108;-87
2021/12/08 07:26:39;;;;;;;15.48;4.38;;;4.00;99.90;;;;;;5052586;28;20499;-87
2021/12/08 07:29:10;;;;;;;10.25;3.55;;;4.00;99.90;;;;;;5035568;28;20040;-87
2021/12/08 07:31:44;;;;;;;5.47;2.40;;;4.00;99.90;;;;;;5053341;28;20035;-87
2021/12/08 07:34:15;;;;;;;5.85;2.70;;;4.00;99.90;;;;;;5051836;28;20021;-87
2021/12/08 07:36:43;;;;;;;8.45;2.50;;;4.00;99.90;;;;;;5036326;28;20032;-87
2021/12/08 07:39:17;;;;;;;7.57;2.80;;;4.10;99.90;;;;;;5018897;28;20029;-87
2021/12/08 07:41:49;;;;;;;12.75;2.92;;;4.10;99.90;;;;;;5051974;28;20028;-87
2021/12/08 07:44:16;;;;;;;4.97;2.33;;;4.10;99.90;;;;;;5051913;28;20029;-87
2021/12/08 07:46:55;;;;;;;8.00;2.95;;;4.10;99.90;;;;;;5051803;28;20483;-87
2021/12/08 07:49:36;;;;;;;8.75;3.10;;;4.20;99.90;;;;;;5051898;28;20036;-87
2021/12/08 07:52:12;;;;;;;10.68;2.80;;;4.20;99.90;;;;;;5045332;28;20047;-86
2021/12/08 07:54:41;;;;;;;7.43;1.98;;;4.20;99.90;;;;;;5068216;28;20035;-86
2021/12/08 07:57:10;;;;;;;9.75;2.97;;;4.20;99.90;;;;;;5027483;28;20037;-86
2021/12/08 07:59:39;;;;;;;7.85;3.35;;;4.20;99.90;;;;;;5034228;28;20564;-86
2021/12/08 08:02:07;;;;;;;9.60;2.78;;;4.20;99.90;;;;;;5034484;28;20588;-86
2021/12/08 08:04:39;;;;;;;8.32;2.40;;;4.30;99.90;;;;;;5034058;28;20036;-86
2021/12/08 08:07:06;;;;;;;5.40;2.45;;;4.30;99.90;;;;;;5034269;28;20028;-86
2021/12/08 08:09:37;;;;;;;8.93;2.45;;;4.30;99.90;;;;;;5071015;28;20377;-85
2021/12/08 08:12:06;;;;;;;9.88;2.28;;;4.30;99.90;;;;;;5054481;28;20509;-86
2021/12/08 08:14:43;;;;;;;6.63;3.03;;;4.30;99.90;;;;;;5063534;28;20067;-85
2021/12/08 08:17:13;;;;;;;7.22;2.67;;;4.40;99.90;;;;;;5051120;28;20035;-86
2021/12/08 08:19:44;;;;;;;9.63;2.67;;;4.40;99.90;;;;;;5059219;28;20103;-87
2021/12/08 08:22:14;;;;;;;4.22;2.47;;;4.50;99.90;;;;;;5054580;28;20055;-85
2021/12/08 08:24:40;;;;;;;4.78;2.50;;;4.50;99.90;;;;;;5063394;28;20040;-86
2021/12/08 08:27:10;;;;;;;7.80;2.10;;;4.50;99.90;;;;;;5032996;28;20072;-85
2021/12/08 08:29:36;;;;;;;4.88;2.08;;;4.50;99.90;;;;;;5037769;28;20086;-85
2021/12/08 08:32:25;;;;;;;6.82;2.25;;;4.50;99.90;;;;;;5039067;28;20424;-86
2021/12/08 08:34:59;;;;;;;6.15;1.70;;;4.60;99.90;;;;;;5049944;28;20053;-86
2021/12/08 08:37:25;;;;;;;4.45;2.08;;;4.60;99.90;;;;;;5033986;28;20035;-87
2021/12/08 08:39:58;;;;;;;6.15;2.40;;;4.60;99.90;;;;;;5053653;28;20044;-86
2021/12/08 08:42:34;;;;;;;3.75;1.92;;;4.70;99.90;;;;;;5043579;28;20029;-87
2021/12/08 08:45:09;;;;;;;5.85;2.30;;;4.70;99.90;;;;;;5027964;28;20090;-86
2021/12/08 08:47:43;;;;;;;4.45;1.80;;;4.70;99.90;;;;;;5061691;28;20519;-86
2021/12/08 08:50:14;;;;;;;5.78;1.80;;;4.70;99.90;;;;;;5069391;28;20051;-86
2021/12/08 08:52:45;;;;;;;6.82;1.95;;;4.70;99.90;;;;;;5034155;28;20037;-86
2021/12/08 08:55:23;;;;;;;3.65;1.50;;;4.80;99.90;;;;;;5033017;28;20029;-86
2021/12/08 08:57:50;;;;;;;7.05;1.98;;;4.80;99.90;;;;;;5050016;28;20108;-86
2021/12/08 09:00:18;;;;;;;6.63;1.98;;;4.80;99.90;;;;;;5033318;28;20508;-86
2021/12/08 09:02:45;;;;;;;6.55;2.45;;;4.80;99.90;;;;;;5053630;28;20021;-86
2021/12/08 09:05:20;;;;;;;5.13;1.70;;;4.80;99.90;;;;;;5052896;28;20485;-86
2021/12/08 09:07:51;;;;;;;6.30;2.30;;;4.90;99.90;;;;;;5053712;28;20094;-86
2021/12/08 09:10:43;;;;;;;9.80;2.00;;;4.80;99.90;;;;;;5045544;28;20048;-86
2021/12/08 09:13:35;;;;;;;6.72;1.63;;;4.80;99.90;;;;;;5051545;28;20053;-86
2021/12/08 09:16:15;;;;;;;5.30;1.45;;;4.80;99.90;;;;;;5047669;28;20627;-86
2021/12/08 09:18:47;;;;;;;;;;;4.80;99.90;;;;;;5037877;28;20501;-86
2021/12/08 09:21:32;;;;;;;6.95;1.63;;;4.90;99.90;;;;;;5063069;28;20299;-86
2021/12/08 09:24:18;;;;;;;9.30;1.80;;;4.90;99.90;;;;;;5066277;28;20029;-86
2021/12/08 09:26:51;;;;;;;4.93;1.70;;;4.90;99.90;;;;;;5048890;28;20381;-86
2021/12/08 09:29:25;;;;;;;10.88;1.85;;;4.90;99.90;;;;;;5050376;28;20025;-87
2021/12/08 09:32:08;;;;;;;7.13;1.83;;;4.90;99.90;;;;;;5051823;28;20115;-86
2021/12/08 09:34:45;;;;;;;6.22;1.60;;;4.90;99.90;;;;;;5065170;28;20031;-86
2021/12/08 09:37:16;;;;;;;10.65;1.92;;;4.90;99.90;;;;;;5034858;28;20029;-86
2021/12/08 09:39:46;;;;;;;8.00;2.47;;;4.80;99.90;;;;;;5033002;28;20033;-86
2021/12/08 09:42:24;;;;;;;6.72;2.00;;;4.80;99.90;;;;;;5035866;28;20036;-86
2021/12/08 09:44:54;;;;;;;5.88;1.55;;;4.80;99.90;;;;;;5048866;28;20033;-86
2021/12/08 09:47:20;;;;;;;11.95;1.85;;;4.80;99.90;;;;;;5042452;28;20528;-86
2021/12/08 09:49:47;;;;;;;8.75;1.98;;;4.70;99.90;;;;;;5043711;28;20396;-86
2021/12/08 09:52:17;;;;;;;6.03;2.33;;;4.80;99.90;;;;;;5068932;28;20028;-86
2021/12/08 09:54:42;;;;;;;7.60;2.10;;;4.70;99.90;;;;;;5050055;28;20177;-86
2021/12/08 09:57:13;;;;;;;7.72;1.58;;;4.70;99.90;;;;;;5067820;28;20073;-86
2021/12/08 09:59:47;;;;;;;5.80;1.88;;;4.70;99.90;;;;;;5069818;28;20099;-86
2021/12/08 10:02:18;;;;;;;11.63;2.78;;;4.70;99.90;;;;;;5052680;28;20504;-86
2021/12/08 10:04:44;;;;;;;8.48;2.65;;;4.70;99.90;;;;;;5068232;28;20519;-86
2021/12/08 10:07:10;;;;;;;6.05;2.78;;;4.70;99.90;;;;;;5051267;28;20384;-86
2021/12/08 10:09:36;;;;;;;10.48;3.03;;;4.80;99.90;;;;;;5052058;28;20515;-86
2021/12/08 10:12:03;;;;;;;12.93;2.45;;;4.80;99.90;;;;;;5037432;28;20173;-86
2021/12/08 10:14:29;;;;;;;6.43;2.28;;;4.90;99.90;;;;;;5047985;28;20029;-87
2021/12/08 10:16:55;;;;;;;5.00;1.60;;;4.90;99.90;;;;;;5032947;28;20033;-86
2021/12/08 10:19:22;;;;;;;6.10;1.63;;;4.90;99.90;;;;;;5051419;28;20060;-87
2021/12/08 10:21:49;;;;;;;4.43;1.45;;;5.00;99.90;;;;;;5066134;28;20112;-86
2021/12/08 10:24:24;;;;;;;8.95;1.30;;;5.00;99.90;;;;;;5068180;28;20499;-86
2021/12/08 10:26:53;;;;;;;3.55;1.60;;;5.00;99.90;;;;;;5051566;28;20047;-86
2021/12/08 10:29:27;;;;;;;6.18;1.25;;;5.10;99.90;;;;;;5051512;28;20041;-86
2021/12/08 10:31:54;;;;;;;17.17;2.17;;;5.10;99.90;;;;;;5067700;28;20443;-86
2021/12/08 10:34:31;;;;;;;11.82;2.20;;;5.10;99.90;;;;;;5067643;28;20477;-86
2021/12/08 10:37:05;;;;;;;7.35;2.83;;;5.10;99.90;;;;;;5039901;28;20078;-86
2021/12/08 10:39:38;;;;;;;18.20;7.07;;;5.10;99.90;;;;;;5072576;28;20032;-86
2021/12/08 10:42:17;;;;;;;15.93;6.13;;;5.10;99.90;;;;;;5055625;28;20036;-87
2021/12/08 10:45:16;;;;;;;27.65;10.35;;;5.10;99.90;;;;;;5072196;28;20032;-86
2021/12/08 10:47:45;;;;;;;22.45;8.63;;;5.20;99.90;;;;;;5066137;28;20039;-86
2021/12/08 10:55:57;;;;;;;13.48;5.07;;;5.20;99.90;;;;;;5053382;28;20058;-86
2021/12/08 10:58:26;;;;;;;11.70;3.80;;;5.20;99.90;;;;;;5035104;28;20025;-86
2021/12/08 11:00:53;;;;;;;8.75;3.63;;;5.20;99.90;;;;;;5065308;28;20036;-86
2021/12/08 11:03:19;;;;;;;6.43;2.60;;;5.20;99.90;;;;;;5071753;28;20035;-87
2021/12/08 11:06:15;;;;;;;10.05;3.40;;;5.20;99.90;;;;;;5071529;28;20033;-87
2021/12/08 11:08:46;;;;;;;12.63;3.45;;;5.30;99.90;;;;;;5066580;28;20044;-86
2021/12/08 11:11:22;;;;;;;13.77;4.03;;;5.30;99.90;;;;;;5052672;28;20033;-87
2021/12/08 11:13:56;;;;;;;18.58;4.35;;;5.30;99.90;;;;;;5035520;28;20586;-86
2021/12/08 11:16:29;;;;;;;22.02;6.85;;;5.30;99.90;;;;;;5034133;28;20039;-86
2021/12/08 11:19:02;;;;;;;33.80;12.25;;;5.30;99.90;;;;;;5067111;28;20152;-86
2021/12/08 11:21:37;;;;;;;22.40;8.77;;;5.40;99.90;;;;;;5051544;28;20028;-86
2021/12/08 11:24:12;;;;;;;15.55;6.22;;;5.40;99.90;;;;;;5032815;28;20838;-86
2021/12/08 11:26:41;;;;;;;16.10;4.22;;;5.40;99.90;;;;;;5035445;28;20033;-87
2021/12/08 11:29:13;;;;;;;13.35;3.15;;;5.40;99.90;;;;;;5072642;28;20036;-86
2021/12/08 11:31:48;;;;;;;7.55;2.42;;;5.40;99.90;;;;;;5055489;28;20032;-86
2021/12/08 11:34:21;;;;;;;5.30;1.98;;;5.40;99.90;;;;;;5056136;28;20037;-86
2021/12/08 11:36:59;;;;;;;10.50;1.90;;;5.50;99.90;;;;;;5036528;28;20025;-86
2021/12/08 11:39:28;;;;;;;6.55;2.63;;;5.50;99.90;;;;;;5071362;28;20381;-87
2021/12/08 11:41:56;;;;;;;8.82;2.50;;;5.50;99.90;;;;;;5071232;28;20089;-86
2021/12/08 11:44:25;;;;;;;5.85;1.73;;;5.50;99.90;;;;;;5070964;28;20063;-86
2021/12/08 11:46:54;;;;;;;10.23;3.20;;;5.50;99.90;;;;;;5040870;28;20131;-86
2021/12/08 11:49:21;;;;;;;10.75;3.40;;;5.60;99.90;;;;;;5026175;28;20056;-86
2021/12/08 11:51:51;;;;;;;12.00;4.10;;;5.60;99.90;;;;;;5069360;28;20024;-86
2021/12/08 11:55:02;;;;;;;13.27;4.30;;;5.60;99.90;;;;;;5054031;28;20025;-87
2021/12/08 11:57:57;;;;;;;21.60;5.28;;;5.60;99.90;;;;;;5062951;28;20488;-86
2021/12/08 12:00:28;;;;;;;12.73;3.78;;;5.60;99.90;;;;;;5054291;28;20119;-86
2021/12/08 12:03:02;;;;;;;5.43;2.55;;;5.60;99.90;;;;;;5054192;28;20032;-86
2021/12/08 12:05:33;;;;;;;9.52;2.35;;;5.60;99.90;;;;;;5052173;28;20075;-87
2021/12/08 12:08:01;;;;;;;11.38;2.05;;;5.60;99.90;;;;;;5050773;28;20584;-86
2021/12/08 12:10:32;;;;;;;9.88;1.63;;;5.60;99.90;;;;;;5034128;28;20037;-86
2021/12/08 12:12:58;;;;;;;7.90;2.17;;;5.50;99.90;;;;;;5051892;28;20515;-87
2021/12/08 12:15:25;;;;;;;11.88;2.00;;;5.60;99.90;;;;;;5070136;28;20032;-87
2021/12/08 12:17:51;;;;;;;10.25;1.42;;;5.60;99.90;;;;;;5070649;28;20025;-86
2021/12/08 12:20:45;;;;;;;8.57;1.90;;;5.60;99.90;;;;;;5062757;28;20336;-86
2021/12/08 12:23:10;;;;;;;7.95;1.27;;;5.60;99.90;;;;;;5066010;28;20064;-87
2021/12/08 12:25:56;;;;;;;11.27;2.13;;;5.60;99.90;;;;;;5049828;28;20489;-87
2021/12/08 12:28:31;;;;;;;8.43;2.55;;;5.60;99.90;;;;;;5050319;28;20078;-87
2021/12/08 12:31:17;;;;;;;6.22;1.45;;;5.60;99.90;;;;;;5052478;28;20029;-87
2021/12/08 12:33:44;;;;;;;8.82;1.23;;;5.70;99.90;;;;;;5070159;28;20021;-87
2021/12/08 12:36:45;;;;;;;15.75;1.42;;;5.60;99.90;;;;;;5069370;28;20032;-86
2021/12/08 12:39:12;;;;;;;5.47;1.40;;;5.70;99.90;;;;;;5031816;28;20037;-87
2021/12/08 12:41:39;;;;;;;8.88;1.88;;;5.60;99.90;;;;;;5022290;28;20086;-87
2021/12/08 12:44:20;;;;;;;3.17;1.42;;;5.60;99.90;;;;;;5071594;28;20439;-84
2021/12/08 12:47:13;;;;;;;6.85;1.30;;;5.60;99.90;;;;;;5039956;28;20036;-89
2021/12/08 12:49:59;;;;;;;7.18;1.50;;;5.60;99.90;;;;;;5069749;28;20052;-88
2021/12/08 12:52:35;;;;;;;9.45;1.60;;;5.70;99.90;;;;;;5070431;28;20024;-87
2021/12/08 12:55:11;;;;;;;7.13;1.80;;;5.60;99.90;;;;;;5054237;28;20131;-87
2021/12/08 12:58:01;;;;;;;9.90;2.42;;;5.60;99.90;;;;;;5050083;28;20021;-87
2021/12/08 13:00:28;;;;;;;;;;;5.60;99.90;;;;;;5050771;28;20044;-88
2021/12/08 13:02:54;;;;;;;7.63;1.65;;;5.60;99.90;;;;;;5050144;28;19908;-88
2021/12/08 13:05:20;;;;;;;6.80;2.40;;;5.70;99.90;;;;;;5050378;28;20091;-89
2021/12/08 13:07:58;;;;;;;11.18;1.70;;;5.70;99.90;;;;;;5049960;28;20061;-88
2021/12/08 13:10:33;;;;;;;6.47;1.70;;;5.70;99.90;;;;;;5016986;28;20029;-90
2021/12/08 13:13:17;;;;;;;6.43;1.15;;;5.60;99.90;;;;;;5033594;28;20037;-89
2021/12/08 13:15:45;;;;;;;14.95;1.52;;;5.60;99.90;;;;;;5052895;28;20028;-89
2021/12/08 13:18:13;;;;;;;8.90;1.48;;;5.60;99.90;;;;;;5069074;28;20028;-89
2021/12/08 13:20:47;;;;;;;10.52;2.08;;;5.60;99.90;;;;;;5069914;28;20047;-89
2021/12/08 13:23:14;;;;;;;14.40;2.78;;;5.60;99.90;;;;;;5069869;28;20021;-88
2021/12/08 13:25:59;;;;;;;8.23;1.80;;;5.50;99.90;;;;;;5070299;28;20461;-90
2021/12/08 13:28:56;;;;;;;8.88;2.30;;;5.50;99.90;;;;;;5072123;28;20021;-93
2021/12/08 13:31:37;;;;;;;8.25;2.22;;;5.50;99.90;;;;;;5069860;28;20028;-92
2021/12/08 13:34:07;;;;;;;12.25;2.28;;;5.50;99.90;;;;;;5070237;28;20396;-88
2021/12/08 13:36:35;;;;;;;13.52;2.17;;;5.50;99.90;;;;;;5068485;28;20090;-88
2021/12/08 13:39:12;;;;;;;6.85;1.27;;;5.50;99.90;;;;;;5069345;28;20033;-88
2021/12/08 13:41:40;;;;;;;12.13;2.05;;;5.40;99.90;;;;;;5051346;28;20025;-88
2021/12/08 13:44:40;;;;;;;8.57;1.58;;;5.40;99.90;;;;;;5053120;28;20032;-88
2021/12/08 13:47:27;;;;;;;7.00;1.88;;;5.40;99.90;;;;;;5015023;28;20034;-87
2021/12/08 13:49:58;;;;;;;7.35;1.35;;;5.40;99.90;;;;;;5029068;28;20470;-87
2021/12/08 13:52:32;;;;;;;12.68;2.00;;;5.30;99.90;;;;;;5110070;23;20512;-83
2021/12/08 13:55:14;;;;;;;16.42;2.88;;;5.30;99.90;;;;;;5069818;28;20040;-83
2021/12/08 13:57:56;;;;;;;7.25;1.83;;;5.30;99.90;;;;;;5072548;28;20016;-84
2021/12/08 14:00:29;;;;;;;9.60;1.40;;;5.20;99.90;;;;;;5062068;28;20024;-84
2021/12/08 14:03:02;;;;;;;5.72;1.70;;;5.20;99.90;;;;;;5048117;28;20035;-83
2021/12/08 14:05:45;;;;;;;9.65;1.52;;;5.20;99.90;;;;;;5072718;28;20055;-83
2021/12/08 14:08:28;;;;;;;13.43;1.70;;;5.10;99.90;;;;;;5045743;28;20033;-84
2021/12/08 14:11:10;;;;;;;3.63;1.15;;;5.10;99.90;;;;;;5037145;28;20037;-83